sensor_id;sensor_type;location;lat;lon;timestamp;temperature;humidity
75621;DHT22;64574;48.506;-2.750;2023-05-23T00:01:02;14.90;71.80
75621;DHT22;64574;48.506;-2.750;2023-05-23T00:03:27;14.80;71.80
75621;DHT22;64574;48.506;-2.750;2023-05-23T00:05:55;14.70;72.10
75621;DHT22;64574;48.506;-2.750;2023-05-23T00:08:21;14.70;72.30
75621;DHT22;64574;48.506;-2.750;2023-05-23T00:10:47;14.80;72.20
75621;DHT22;64574;48.506;-2.750;2023-05-23T00:13:13;14.80;71.90
75621;DHT22;64574;48.506;-2.750;2023-05-23T00:15:39;14.70;72.40
75621;DHT22;64574;48.506;-2.750;2023-05-23T00:18:06;14.70;72.30
75621;DHT22;64574;48.506;-2.750;2023-05-23T00:20:33;14.70;72.30
75621;DHT22;64574;48.506;-2.750;2023-05-23T00:23:01;14.80;72.20
75621;DHT22;64574;48.506;-2.750;2023-05-23T00:25:28;14.80;72.00
75621;DHT22;64574;48.506;-2.750;2023-05-23T00:27:59;14.70;72.10
75621;DHT22;64574;48.506;-2.750;2023-05-23T00:30:31;14.70;72.30
75621;DHT22;64574;48.506;-2.750;2023-05-23T00:32:57;14.70;72.20
75621;DHT22;64574;48.506;-2.750;2023-05-23T00:35:23;14.70;72.10
75621;DHT22;64574;48.506;-2.750;2023-05-23T00:37:49;14.50;72.40
75621;DHT22;64574;48.506;-2.750;2023-05-23T00:40:19;14.50;72.50
75621;DHT22;64574;48.506;-2.750;2023-05-23T00:42:45;14.50;72.60
75621;DHT22;64574;48.506;-2.750;2023-05-23T00:45:13;14.50;72.50
75621;DHT22;64574;48.506;-2.750;2023-05-23T00:47:40;14.40;72.80
75621;DHT22;64574;48.506;-2.750;2023-05-23T00:50:07;14.40;72.80
75621;DHT22;64574;48.506;-2.750;2023-05-23T00:52:33;14.50;72.50
75621;DHT22;64574;48.506;-2.750;2023-05-23T00:54:59;14.60;72.50
75621;DHT22;64574;48.506;-2.750;2023-05-23T00:57:24;14.70;72.20
75621;DHT22;64574;48.506;-2.750;2023-05-23T00:59:50;14.70;71.90
75621;DHT22;64574;48.506;-2.750;2023-05-23T01:02:16;14.80;72.00
75621;DHT22;64574;48.506;-2.750;2023-05-23T01:04:43;14.70;72.20
75621;DHT22;64574;48.506;-2.750;2023-05-23T01:07:09;14.70;72.30
75621;DHT22;64574;48.506;-2.750;2023-05-23T01:09:35;14.70;72.30
75621;DHT22;64574;48.506;-2.750;2023-05-23T01:15:03;14.70;72.70
75621;DHT22;64574;48.506;-2.750;2023-05-23T01:20:37;14.60;72.90
75621;DHT22;64574;48.506;-2.750;2023-05-23T01:28:39;14.70;72.70
75621;DHT22;64574;48.506;-2.750;2023-05-23T01:31:09;14.70;72.90
75621;DHT22;64574;48.506;-2.750;2023-05-23T01:33:37;14.70;72.90
75621;DHT22;64574;48.506;-2.750;2023-05-23T01:36:04;14.70;73.00
75621;DHT22;64574;48.506;-2.750;2023-05-23T01:38:30;14.60;73.30
75621;DHT22;64574;48.506;-2.750;2023-05-23T01:40:56;14.70;73.10
75621;DHT22;64574;48.506;-2.750;2023-05-23T01:43:22;14.50;73.30
75621;DHT22;64574;48.506;-2.750;2023-05-23T01:45:51;14.60;73.30
75621;DHT22;64574;48.506;-2.750;2023-05-23T01:48:18;14.60;73.40
75621;DHT22;64574;48.506;-2.750;2023-05-23T01:50:45;14.60;73.70
75621;DHT22;64574;48.506;-2.750;2023-05-23T01:53:12;14.50;74.00
75621;DHT22;64574;48.506;-2.750;2023-05-23T01:55:40;14.40;74.50
75621;DHT22;64574;48.506;-2.750;2023-05-23T01:58:05;14.40;74.80
75621;DHT22;64574;48.506;-2.750;2023-05-23T02:00:31;14.50;74.80
75621;DHT22;64574;48.506;-2.750;2023-05-23T02:02:57;14.40;74.90
75621;DHT22;64574;48.506;-2.750;2023-05-23T02:05:23;14.30;75.00
75621;DHT22;64574;48.506;-2.750;2023-05-23T02:07:49;14.40;75.00
75621;DHT22;64574;48.506;-2.750;2023-05-23T02:10:14;14.20;75.40
75621;DHT22;64574;48.506;-2.750;2023-05-23T02:12:40;14.30;75.50
75621;DHT22;64574;48.506;-2.750;2023-05-23T02:15:06;14.30;75.30
75621;DHT22;64574;48.506;-2.750;2023-05-23T02:17:32;14.30;75.30
75621;DHT22;64574;48.506;-2.750;2023-05-23T02:19:58;14.40;75.20
75621;DHT22;64574;48.506;-2.750;2023-05-23T02:22:24;14.30;75.40
75621;DHT22;64574;48.506;-2.750;2023-05-23T02:24:50;14.30;75.50
75621;DHT22;64574;48.506;-2.750;2023-05-23T02:27:16;14.30;75.30
75621;DHT22;64574;48.506;-2.750;2023-05-23T02:29:42;14.40;75.30
75621;DHT22;64574;48.506;-2.750;2023-05-23T02:32:07;14.40;75.10
75621;DHT22;64574;48.506;-2.750;2023-05-23T02:34:33;14.50;74.90
75621;DHT22;64574;48.506;-2.750;2023-05-23T02:36:59;14.50;74.80
75621;DHT22;64574;48.506;-2.750;2023-05-23T02:39:25;14.50;74.40
75621;DHT22;64574;48.506;-2.750;2023-05-23T02:41:51;14.50;74.40
75621;DHT22;64574;48.506;-2.750;2023-05-23T02:44:17;14.40;74.50
75621;DHT22;64574;48.506;-2.750;2023-05-23T02:46:44;14.40;74.50
75621;DHT22;64574;48.506;-2.750;2023-05-23T02:49:10;14.30;74.50
75621;DHT22;64574;48.506;-2.750;2023-05-23T02:51:35;14.30;74.60
75621;DHT22;64574;48.506;-2.750;2023-05-23T02:54:01;14.40;74.40
75621;DHT22;64574;48.506;-2.750;2023-05-23T02:56:27;14.30;74.60
75621;DHT22;64574;48.506;-2.750;2023-05-23T02:58:52;14.30;74.70
75621;DHT22;64574;48.506;-2.750;2023-05-23T03:01:18;14.20;75.00
75621;DHT22;64574;48.506;-2.750;2023-05-23T03:03:44;14.20;74.40
75621;DHT22;64574;48.506;-2.750;2023-05-23T03:06:10;14.20;74.60
75621;DHT22;64574;48.506;-2.750;2023-05-23T03:08:42;14.30;74.50
75621;DHT22;64574;48.506;-2.750;2023-05-23T03:11:08;14.30;74.30
75621;DHT22;64574;48.506;-2.750;2023-05-23T03:13:34;14.30;74.70
75621;DHT22;64574;48.506;-2.750;2023-05-23T03:16:00;14.30;74.80
75621;DHT22;64574;48.506;-2.750;2023-05-23T03:18:26;14.30;74.90
75621;DHT22;64574;48.506;-2.750;2023-05-23T03:20:51;14.30;75.30
75621;DHT22;64574;48.506;-2.750;2023-05-23T03:23:17;14.20;75.50
75621;DHT22;64574;48.506;-2.750;2023-05-23T03:25:43;14.10;76.00
75621;DHT22;64574;48.506;-2.750;2023-05-23T03:28:08;14.10;76.00
75621;DHT22;64574;48.506;-2.750;2023-05-23T03:30:37;14.10;76.20
75621;DHT22;64574;48.506;-2.750;2023-05-23T03:33:02;14.30;75.60
75621;DHT22;64574;48.506;-2.750;2023-05-23T03:35:28;14.30;75.00
75621;DHT22;64574;48.506;-2.750;2023-05-23T03:37:54;14.40;74.40
75621;DHT22;64574;48.506;-2.750;2023-05-23T03:40:20;14.30;74.30
75621;DHT22;64574;48.506;-2.750;2023-05-23T03:42:47;14.20;73.70
75621;DHT22;64574;48.506;-2.750;2023-05-23T03:45:13;14.30;73.40
75621;DHT22;64574;48.506;-2.750;2023-05-23T03:47:39;14.20;73.50
75621;DHT22;64574;48.506;-2.750;2023-05-23T03:50:05;14.20;73.40
75621;DHT22;64574;48.506;-2.750;2023-05-23T03:52:31;14.20;73.50
75621;DHT22;64574;48.506;-2.750;2023-05-23T03:54:57;14.20;73.70
75621;DHT22;64574;48.506;-2.750;2023-05-23T03:57:22;14.20;74.00
75621;DHT22;64574;48.506;-2.750;2023-05-23T03:59:48;14.30;74.00
75621;DHT22;64574;48.506;-2.750;2023-05-23T04:02:13;14.20;74.00
75621;DHT22;64574;48.506;-2.750;2023-05-23T04:04:39;14.20;73.80
75621;DHT22;64574;48.506;-2.750;2023-05-23T04:07:05;14.10;73.70
75621;DHT22;64574;48.506;-2.750;2023-05-23T04:09:31;14.10;73.60
75621;DHT22;64574;48.506;-2.750;2023-05-23T04:11:57;14.10;73.80
75621;DHT22;64574;48.506;-2.750;2023-05-23T04:14:22;14.10;74.00
75621;DHT22;64574;48.506;-2.750;2023-05-23T04:16:52;14.10;74.20
75621;DHT22;64574;48.506;-2.750;2023-05-23T04:19:18;14.00;74.20
75621;DHT22;64574;48.506;-2.750;2023-05-23T04:21:43;14.00;74.20
75621;DHT22;64574;48.506;-2.750;2023-05-23T04:24:09;14.00;73.90
75621;DHT22;64574;48.506;-2.750;2023-05-23T04:26:35;14.00;73.80
75621;DHT22;64574;48.506;-2.750;2023-05-23T04:29:02;14.00;73.70
75621;DHT22;64574;48.506;-2.750;2023-05-23T04:31:28;13.90;73.90
75621;DHT22;64574;48.506;-2.750;2023-05-23T04:33:54;13.90;73.80
75621;DHT22;64574;48.506;-2.750;2023-05-23T04:36:20;14.00;73.40
75621;DHT22;64574;48.506;-2.750;2023-05-23T04:38:47;14.00;73.30
75621;DHT22;64574;48.506;-2.750;2023-05-23T04:41:13;14.10;73.30
75621;DHT22;64574;48.506;-2.750;2023-05-23T04:43:41;14.10;73.00
75621;DHT22;64574;48.506;-2.750;2023-05-23T04:46:08;14.20;72.50
75621;DHT22;64574;48.506;-2.750;2023-05-23T04:48:34;14.10;72.40
75621;DHT22;64574;48.506;-2.750;2023-05-23T04:51:01;14.10;72.40
75621;DHT22;64574;48.506;-2.750;2023-05-23T04:53:30;14.10;72.30
75621;DHT22;64574;48.506;-2.750;2023-05-23T04:55:56;14.10;72.10
75621;DHT22;64574;48.506;-2.750;2023-05-23T04:58:21;14.20;72.00
75621;DHT22;64574;48.506;-2.750;2023-05-23T05:00:47;14.20;71.80
75621;DHT22;64574;48.506;-2.750;2023-05-23T05:03:12;14.30;71.60
75621;DHT22;64574;48.506;-2.750;2023-05-23T05:05:38;14.20;71.50
75621;DHT22;64574;48.506;-2.750;2023-05-23T05:08:04;14.20;71.00
75621;DHT22;64574;48.506;-2.750;2023-05-23T05:10:30;14.20;70.80
75621;DHT22;64574;48.506;-2.750;2023-05-23T05:12:55;14.20;70.50
75621;DHT22;64574;48.506;-2.750;2023-05-23T05:15:21;14.20;70.50
75621;DHT22;64574;48.506;-2.750;2023-05-23T05:17:47;14.20;70.50
75621;DHT22;64574;48.506;-2.750;2023-05-23T05:20:12;14.20;70.30
75621;DHT22;64574;48.506;-2.750;2023-05-23T05:22:38;14.20;69.90
75621;DHT22;64574;48.506;-2.750;2023-05-23T05:25:06;14.20;69.50
75621;DHT22;64574;48.506;-2.750;2023-05-23T05:27:32;14.20;69.00
75621;DHT22;64574;48.506;-2.750;2023-05-23T05:29:58;14.20;68.60
75621;DHT22;64574;48.506;-2.750;2023-05-23T05:32:29;14.20;68.30
75621;DHT22;64574;48.506;-2.750;2023-05-23T05:35:02;14.30;67.30
75621;DHT22;64574;48.506;-2.750;2023-05-23T05:37:28;14.30;66.70
75621;DHT22;64574;48.506;-2.750;2023-05-23T05:39:54;14.20;66.90
75621;DHT22;64574;48.506;-2.750;2023-05-23T05:42:21;14.20;66.80
75621;DHT22;64574;48.506;-2.750;2023-05-23T05:44:47;14.30;66.50
75621;DHT22;64574;48.506;-2.750;2023-05-23T05:47:13;14.30;66.60
75621;DHT22;64574;48.506;-2.750;2023-05-23T05:49:39;14.20;66.70
75621;DHT22;64574;48.506;-2.750;2023-05-23T05:52:08;14.20;66.40
75621;DHT22;64574;48.506;-2.750;2023-05-23T05:54:33;14.40;66.30
75621;DHT22;64574;48.506;-2.750;2023-05-23T05:56:59;14.40;66.20
75621;DHT22;64574;48.506;-2.750;2023-05-23T05:59:25;14.50;66.20
75621;DHT22;64574;48.506;-2.750;2023-05-23T06:01:51;14.40;65.90
75621;DHT22;64574;48.506;-2.750;2023-05-23T06:04:17;14.30;66.00
75621;DHT22;64574;48.506;-2.750;2023-05-23T06:06:43;14.20;65.60
75621;DHT22;64574;48.506;-2.750;2023-05-23T06:09:08;14.30;65.20
75621;DHT22;64574;48.506;-2.750;2023-05-23T06:11:35;14.30;65.40
75621;DHT22;64574;48.506;-2.750;2023-05-23T06:14:03;14.30;65.70
75621;DHT22;64574;48.506;-2.750;2023-05-23T06:16:29;14.40;65.50
75621;DHT22;64574;48.506;-2.750;2023-05-23T06:18:55;14.40;65.40
75621;DHT22;64574;48.506;-2.750;2023-05-23T06:21:20;14.50;65.30
75621;DHT22;64574;48.506;-2.750;2023-05-23T06:23:46;14.50;65.30
75621;DHT22;64574;48.506;-2.750;2023-05-23T06:26:12;14.50;65.30
75621;DHT22;64574;48.506;-2.750;2023-05-23T06:28:37;14.50;65.20
75621;DHT22;64574;48.506;-2.750;2023-05-23T06:31:04;14.50;65.00
75621;DHT22;64574;48.506;-2.750;2023-05-23T06:33:30;14.50;65.00
75621;DHT22;64574;48.506;-2.750;2023-05-23T06:35:56;14.50;65.40
75621;DHT22;64574;48.506;-2.750;2023-05-23T06:38:22;14.60;65.40
75621;DHT22;64574;48.506;-2.750;2023-05-23T06:40:47;14.60;65.70
75621;DHT22;64574;48.506;-2.750;2023-05-23T06:43:13;14.70;65.70
75621;DHT22;64574;48.506;-2.750;2023-05-23T06:45:39;14.70;65.60
75621;DHT22;64574;48.506;-2.750;2023-05-23T06:48:05;14.50;65.50
75621;DHT22;64574;48.506;-2.750;2023-05-23T06:50:30;14.50;65.70
75621;DHT22;64574;48.506;-2.750;2023-05-23T06:52:56;14.50;66.00
75621;DHT22;64574;48.506;-2.750;2023-05-23T06:55:22;14.70;66.00
75621;DHT22;64574;48.506;-2.750;2023-05-23T06:57:48;14.70;65.30
75621;DHT22;64574;48.506;-2.750;2023-05-23T07:00:17;14.70;65.50
75621;DHT22;64574;48.506;-2.750;2023-05-23T07:02:43;14.60;64.70
75621;DHT22;64574;48.506;-2.750;2023-05-23T07:05:15;14.60;64.70
75621;DHT22;64574;48.506;-2.750;2023-05-23T07:07:42;14.60;64.60
75621;DHT22;64574;48.506;-2.750;2023-05-23T07:10:08;14.70;64.20
75621;DHT22;64574;48.506;-2.750;2023-05-23T07:12:34;14.70;63.00
75621;DHT22;64574;48.506;-2.750;2023-05-23T07:15:00;14.90;62.90
75621;DHT22;64574;48.506;-2.750;2023-05-23T07:17:25;14.80;62.60
75621;DHT22;64574;48.506;-2.750;2023-05-23T07:19:51;14.70;62.20
75621;DHT22;64574;48.506;-2.750;2023-05-23T07:22:17;14.70;62.20
75621;DHT22;64574;48.506;-2.750;2023-05-23T07:24:42;14.70;62.20
75621;DHT22;64574;48.506;-2.750;2023-05-23T07:27:08;14.50;62.80
75621;DHT22;64574;48.506;-2.750;2023-05-23T07:29:33;14.70;63.00
75621;DHT22;64574;48.506;-2.750;2023-05-23T07:31:59;14.50;62.90
75621;DHT22;64574;48.506;-2.750;2023-05-23T07:34:25;14.70;62.70
75621;DHT22;64574;48.506;-2.750;2023-05-23T07:36:51;14.80;62.70
75621;DHT22;64574;48.506;-2.750;2023-05-23T07:39:16;14.80;62.60
75621;DHT22;64574;48.506;-2.750;2023-05-23T07:41:46;14.70;62.70
75621;DHT22;64574;48.506;-2.750;2023-05-23T07:44:12;14.50;63.40
75621;DHT22;64574;48.506;-2.750;2023-05-23T07:46:38;14.40;63.20
75621;DHT22;64574;48.506;-2.750;2023-05-23T07:49:03;14.30;63.00
75621;DHT22;64574;48.506;-2.750;2023-05-23T07:51:29;14.30;63.80
75621;DHT22;64574;48.506;-2.750;2023-05-23T07:53:55;14.40;64.40
75621;DHT22;64574;48.506;-2.750;2023-05-23T07:56:21;14.50;64.60
75621;DHT22;64574;48.506;-2.750;2023-05-23T07:58:47;14.50;65.00
75621;DHT22;64574;48.506;-2.750;2023-05-23T08:01:13;14.60;65.10
75621;DHT22;64574;48.506;-2.750;2023-05-23T08:03:38;14.50;65.50
75621;DHT22;64574;48.506;-2.750;2023-05-23T08:06:04;14.50;65.50
75621;DHT22;64574;48.506;-2.750;2023-05-23T08:08:32;14.60;65.60
75621;DHT22;64574;48.506;-2.750;2023-05-23T08:10:57;14.50;65.80
75621;DHT22;64574;48.506;-2.750;2023-05-23T08:13:23;14.60;66.00
75621;DHT22;64574;48.506;-2.750;2023-05-23T08:15:48;14.70;65.50
75621;DHT22;64574;48.506;-2.750;2023-05-23T08:18:14;14.50;65.90
75621;DHT22;64574;48.506;-2.750;2023-05-23T08:20:40;14.40;66.00
75621;DHT22;64574;48.506;-2.750;2023-05-23T08:23:06;14.50;65.00
75621;DHT22;64574;48.506;-2.750;2023-05-23T08:25:31;14.40;64.40
75621;DHT22;64574;48.506;-2.750;2023-05-23T08:27:58;14.50;63.50
75621;DHT22;64574;48.506;-2.750;2023-05-23T08:30:27;14.70;63.30
75621;DHT22;64574;48.506;-2.750;2023-05-23T08:32:54;14.90;62.80
75621;DHT22;64574;48.506;-2.750;2023-05-23T08:35:20;14.90;62.60
75621;DHT22;64574;48.506;-2.750;2023-05-23T08:37:47;14.90;62.40
75621;DHT22;64574;48.506;-2.750;2023-05-23T08:40:22;14.80;62.50
75621;DHT22;64574;48.506;-2.750;2023-05-23T08:42:48;14.60;62.90
75621;DHT22;64574;48.506;-2.750;2023-05-23T08:45:15;14.50;63.20
75621;DHT22;64574;48.506;-2.750;2023-05-23T08:47:41;14.70;63.20
75621;DHT22;64574;48.506;-2.750;2023-05-23T08:50:11;14.60;63.30
75621;DHT22;64574;48.506;-2.750;2023-05-23T08:52:42;14.80;63.10
75621;DHT22;64574;48.506;-2.750;2023-05-23T08:55:10;14.80;63.30
75621;DHT22;64574;48.506;-2.750;2023-05-23T08:57:37;14.80;62.90
75621;DHT22;64574;48.506;-2.750;2023-05-23T09:00:03;14.80;63.10
75621;DHT22;64574;48.506;-2.750;2023-05-23T09:02:34;14.70;62.70
75621;DHT22;64574;48.506;-2.750;2023-05-23T09:05:01;14.70;63.10
75621;DHT22;64574;48.506;-2.750;2023-05-23T09:07:28;15.00;63.00
75621;DHT22;64574;48.506;-2.750;2023-05-23T09:09:53;15.00;62.80
75621;DHT22;64574;48.506;-2.750;2023-05-23T09:12:19;15.10;62.50
75621;DHT22;64574;48.506;-2.750;2023-05-23T09:14:47;15.20;62.20
75621;DHT22;64574;48.506;-2.750;2023-05-23T09:17:20;15.00;62.60
75621;DHT22;64574;48.506;-2.750;2023-05-23T09:19:46;15.20;62.50
75621;DHT22;64574;48.506;-2.750;2023-05-23T09:22:12;15.10;63.00
75621;DHT22;64574;48.506;-2.750;2023-05-23T09:24:38;15.00;63.00
75621;DHT22;64574;48.506;-2.750;2023-05-23T09:27:07;14.90;63.30
75621;DHT22;64574;48.506;-2.750;2023-05-23T09:29:37;14.90;63.30
75621;DHT22;64574;48.506;-2.750;2023-05-23T09:32:17;14.80;63.20
75621;DHT22;64574;48.506;-2.750;2023-05-23T09:34:59;14.80;63.40
75621;DHT22;64574;48.506;-2.750;2023-05-23T09:37:35;14.70;63.70
75621;DHT22;64574;48.506;-2.750;2023-05-23T09:40:06;14.90;63.30
75621;DHT22;64574;48.506;-2.750;2023-05-23T09:42:35;14.90;63.60
75621;DHT22;64574;48.506;-2.750;2023-05-23T09:45:01;14.80;63.90
75621;DHT22;64574;48.506;-2.750;2023-05-23T09:47:27;14.80;63.80
75621;DHT22;64574;48.506;-2.750;2023-05-23T09:49:53;14.80;63.80
75621;DHT22;64574;48.506;-2.750;2023-05-23T09:52:19;14.90;63.70
75621;DHT22;64574;48.506;-2.750;2023-05-23T09:54:45;14.80;63.30
75621;DHT22;64574;48.506;-2.750;2023-05-23T09:57:14;14.80;63.40
75621;DHT22;64574;48.506;-2.750;2023-05-23T09:59:41;14.70;63.90
75621;DHT22;64574;48.506;-2.750;2023-05-23T10:02:15;14.80;63.90
75621;DHT22;64574;48.506;-2.750;2023-05-23T10:04:42;14.80;63.90
75621;DHT22;64574;48.506;-2.750;2023-05-23T10:07:19;15.00;64.00
75621;DHT22;64574;48.506;-2.750;2023-05-23T10:09:55;15.20;63.50
75621;DHT22;64574;48.506;-2.750;2023-05-23T10:15:04;15.00;63.20
75621;DHT22;64574;48.506;-2.750;2023-05-23T10:20:14;15.00;63.50
75621;DHT22;64574;48.506;-2.750;2023-05-23T10:22:41;15.00;63.50
75621;DHT22;64574;48.506;-2.750;2023-05-23T10:25:07;14.90;63.70
75621;DHT22;64574;48.506;-2.750;2023-05-23T10:27:38;15.00;63.30
75621;DHT22;64574;48.506;-2.750;2023-05-23T10:30:06;15.20;63.80
75621;DHT22;64574;48.506;-2.750;2023-05-23T10:32:32;15.00;63.60
75621;DHT22;64574;48.506;-2.750;2023-05-23T10:35:16;14.90;63.90
75621;DHT22;64574;48.506;-2.750;2023-05-23T10:37:55;14.90;64.30
75621;DHT22;64574;48.506;-2.750;2023-05-23T10:40:26;15.00;63.80
75621;DHT22;64574;48.506;-2.750;2023-05-23T10:45:27;15.30;63.00
75621;DHT22;64574;48.506;-2.750;2023-05-23T10:47:53;15.30;63.40
75621;DHT22;64574;48.506;-2.750;2023-05-23T10:50:33;15.20;63.60
75621;DHT22;64574;48.506;-2.750;2023-05-23T10:53:03;15.40;63.60
75621;DHT22;64574;48.506;-2.750;2023-05-23T10:55:34;15.30;64.00
75621;DHT22;64574;48.506;-2.750;2023-05-23T10:58:09;15.40;63.60
75621;DHT22;64574;48.506;-2.750;2023-05-23T11:00:36;15.30;63.50
75621;DHT22;64574;48.506;-2.750;2023-05-23T11:03:04;15.20;63.50
75621;DHT22;64574;48.506;-2.750;2023-05-23T11:05:33;15.30;63.60
75621;DHT22;64574;48.506;-2.750;2023-05-23T11:08:12;15.40;62.70
75621;DHT22;64574;48.506;-2.750;2023-05-23T11:16:43;15.60;62.20
75621;DHT22;64574;48.506;-2.750;2023-05-23T11:24:11;15.60;63.10
75621;DHT22;64574;48.506;-2.750;2023-05-23T11:26:37;15.80;63.00
75621;DHT22;64574;48.506;-2.750;2023-05-23T11:29:07;15.60;62.90
75621;DHT22;64574;48.506;-2.750;2023-05-23T11:31:39;15.50;62.80
75621;DHT22;64574;48.506;-2.750;2023-05-23T11:34:06;15.40;63.10
75621;DHT22;64574;48.506;-2.750;2023-05-23T11:36:31;15.60;62.60
75621;DHT22;64574;48.506;-2.750;2023-05-23T11:39:01;15.60;61.90
75621;DHT22;64574;48.506;-2.750;2023-05-23T11:41:29;15.60;62.30
75621;DHT22;64574;48.506;-2.750;2023-05-23T11:43:54;15.60;62.70
75621;DHT22;64574;48.506;-2.750;2023-05-23T11:46:20;15.80;62.30
75621;DHT22;64574;48.506;-2.750;2023-05-23T11:48:46;15.80;62.40
75621;DHT22;64574;48.506;-2.750;2023-05-23T11:51:13;15.70;61.70
75621;DHT22;64574;48.506;-2.750;2023-05-23T11:53:38;15.80;62.50
75621;DHT22;64574;48.506;-2.750;2023-05-23T11:56:04;16.00;61.90
75621;DHT22;64574;48.506;-2.750;2023-05-23T11:58:34;16.00;60.50
75621;DHT22;64574;48.506;-2.750;2023-05-23T12:03:31;15.80;61.30
75621;DHT22;64574;48.506;-2.750;2023-05-23T12:05:57;16.00;60.80
75621;DHT22;64574;48.506;-2.750;2023-05-23T12:08:23;16.10;61.40
75621;DHT22;64574;48.506;-2.750;2023-05-23T12:10:55;16.10;60.90
75621;DHT22;64574;48.506;-2.750;2023-05-23T12:13:27;16.20;60.80
75621;DHT22;64574;48.506;-2.750;2023-05-23T12:15:58;15.90;61.00
75621;DHT22;64574;48.506;-2.750;2023-05-23T12:18:27;16.00;60.00
75621;DHT22;64574;48.506;-2.750;2023-05-23T12:20:53;16.10;59.10
75621;DHT22;64574;48.506;-2.750;2023-05-23T12:23:23;16.20;59.80
75621;DHT22;64574;48.506;-2.750;2023-05-23T12:25:53;16.40;58.70
75621;DHT22;64574;48.506;-2.750;2023-05-23T12:31:20;16.60;60.00
75621;DHT22;64574;48.506;-2.750;2023-05-23T12:33:47;16.60;57.90
75621;DHT22;64574;48.506;-2.750;2023-05-23T12:36:21;16.60;57.80
75621;DHT22;64574;48.506;-2.750;2023-05-23T12:38:47;16.60;56.90
75621;DHT22;64574;48.506;-2.750;2023-05-23T12:41:17;16.40;59.00
75621;DHT22;64574;48.506;-2.750;2023-05-23T12:43:52;16.60;59.10
75621;DHT22;64574;48.506;-2.750;2023-05-23T12:46:20;16.60;58.60
75621;DHT22;64574;48.506;-2.750;2023-05-23T12:48:46;16.70;58.30
75621;DHT22;64574;48.506;-2.750;2023-05-23T12:51:12;16.60;57.90
75621;DHT22;64574;48.506;-2.750;2023-05-23T12:53:38;16.70;58.60
75621;DHT22;64574;48.506;-2.750;2023-05-23T12:56:04;16.70;58.20
75621;DHT22;64574;48.506;-2.750;2023-05-23T12:58:30;16.70;57.30
75621;DHT22;64574;48.506;-2.750;2023-05-23T13:00:57;16.60;57.60
75621;DHT22;64574;48.506;-2.750;2023-05-23T13:03:23;16.70;57.60
75621;DHT22;64574;48.506;-2.750;2023-05-23T13:05:48;16.80;57.00
75621;DHT22;64574;48.506;-2.750;2023-05-23T13:08:14;17.00;56.40
75621;DHT22;64574;48.506;-2.750;2023-05-23T13:10:40;17.00;56.40
75621;DHT22;64574;48.506;-2.750;2023-05-23T13:13:06;17.00;56.00
75621;DHT22;64574;48.506;-2.750;2023-05-23T13:15:32;17.20;56.40
75621;DHT22;64574;48.506;-2.750;2023-05-23T13:17:58;17.00;55.70
75621;DHT22;64574;48.506;-2.750;2023-05-23T13:20:23;17.00;57.10
75621;DHT22;64574;48.506;-2.750;2023-05-23T13:22:49;16.90;57.80
75621;DHT22;64574;48.506;-2.750;2023-05-23T13:25:15;16.80;58.70
75621;DHT22;64574;48.506;-2.750;2023-05-23T13:27:41;16.80;58.70
75621;DHT22;64574;48.506;-2.750;2023-05-23T13:30:07;16.70;59.70
75621;DHT22;64574;48.506;-2.750;2023-05-23T13:32:33;17.00;58.90
75621;DHT22;64574;48.506;-2.750;2023-05-23T13:34:58;17.10;58.00
75621;DHT22;64574;48.506;-2.750;2023-05-23T13:37:24;17.20;58.60
75621;DHT22;64574;48.506;-2.750;2023-05-23T13:39:50;17.30;58.80
75621;DHT22;64574;48.506;-2.750;2023-05-23T13:42:15;17.60;57.70
75621;DHT22;64574;48.506;-2.750;2023-05-23T13:44:41;17.80;58.40
75621;DHT22;64574;48.506;-2.750;2023-05-23T13:47:11;17.80;57.40
75621;DHT22;64574;48.506;-2.750;2023-05-23T13:49:37;17.80;58.60
75621;DHT22;64574;48.506;-2.750;2023-05-23T13:52:03;17.80;59.00
75621;DHT22;64574;48.506;-2.750;2023-05-23T13:54:29;17.80;60.20
75621;DHT22;64574;48.506;-2.750;2023-05-23T13:56:54;17.70;60.80
75621;DHT22;64574;48.506;-2.750;2023-05-23T13:59:20;17.80;61.60
75621;DHT22;64574;48.506;-2.750;2023-05-23T14:01:46;17.80;61.20
75621;DHT22;64574;48.506;-2.750;2023-05-23T14:04:12;17.80;61.30
75621;DHT22;64574;48.506;-2.750;2023-05-23T14:06:38;17.50;61.50
75621;DHT22;64574;48.506;-2.750;2023-05-23T14:09:04;17.60;61.80
75621;DHT22;64574;48.506;-2.750;2023-05-23T14:11:30;17.70;61.50
75621;DHT22;64574;48.506;-2.750;2023-05-23T14:13:56;17.40;61.40
75621;DHT22;64574;48.506;-2.750;2023-05-23T14:16:22;17.20;62.60
75621;DHT22;64574;48.506;-2.750;2023-05-23T14:18:47;17.00;62.20
75621;DHT22;64574;48.506;-2.750;2023-05-23T14:21:13;17.00;62.20
75621;DHT22;64574;48.506;-2.750;2023-05-23T14:23:39;17.10;63.00
75621;DHT22;64574;48.506;-2.750;2023-05-23T14:26:04;17.00;64.00
75621;DHT22;64574;48.506;-2.750;2023-05-23T14:28:30;17.00;64.30
75621;DHT22;64574;48.506;-2.750;2023-05-23T14:30:56;16.90;63.30
75621;DHT22;64574;48.506;-2.750;2023-05-23T14:33:23;16.80;64.10
75621;DHT22;64574;48.506;-2.750;2023-05-23T14:35:49;16.90;63.90
75621;DHT22;64574;48.506;-2.750;2023-05-23T14:38:15;17.00;63.70
75621;DHT22;64574;48.506;-2.750;2023-05-23T14:40:41;17.10;62.90
75621;DHT22;64574;48.506;-2.750;2023-05-23T14:43:07;17.20;62.50
75621;DHT22;64574;48.506;-2.750;2023-05-23T14:45:32;17.40;62.60
75621;DHT22;64574;48.506;-2.750;2023-05-23T14:47:58;17.20;63.20
75621;DHT22;64574;48.506;-2.750;2023-05-23T14:50:25;17.20;63.50
75621;DHT22;64574;48.506;-2.750;2023-05-23T14:52:51;17.10;64.00
75621;DHT22;64574;48.506;-2.750;2023-05-23T14:55:16;17.10;64.30
75621;DHT22;64574;48.506;-2.750;2023-05-23T14:57:42;17.40;64.20
75621;DHT22;64574;48.506;-2.750;2023-05-23T15:00:09;17.40;63.70
75621;DHT22;64574;48.506;-2.750;2023-05-23T15:02:36;17.20;64.20
75621;DHT22;64574;48.506;-2.750;2023-05-23T15:05:02;17.20;64.50
75621;DHT22;64574;48.506;-2.750;2023-05-23T15:07:29;17.20;64.40
75621;DHT22;64574;48.506;-2.750;2023-05-23T15:09:54;17.40;64.10
75621;DHT22;64574;48.506;-2.750;2023-05-23T15:12:20;17.50;64.10
75621;DHT22;64574;48.506;-2.750;2023-05-23T15:14:46;17.30;64.60
75621;DHT22;64574;48.506;-2.750;2023-05-23T15:17:12;17.30;64.10
75621;DHT22;64574;48.506;-2.750;2023-05-23T15:19:43;17.20;64.60
75621;DHT22;64574;48.506;-2.750;2023-05-23T15:22:09;17.30;64.50
75621;DHT22;64574;48.506;-2.750;2023-05-23T15:24:34;17.40;64.50
75621;DHT22;64574;48.506;-2.750;2023-05-23T15:27:00;17.20;63.30
75621;DHT22;64574;48.506;-2.750;2023-05-23T15:29:26;17.50;63.50
75621;DHT22;64574;48.506;-2.750;2023-05-23T15:31:52;17.50;62.60
75621;DHT22;64574;48.506;-2.750;2023-05-23T15:34:18;17.50;62.30
75621;DHT22;64574;48.506;-2.750;2023-05-23T15:36:43;17.50;61.10
75621;DHT22;64574;48.506;-2.750;2023-05-23T15:39:12;17.50;60.30
75621;DHT22;64574;48.506;-2.750;2023-05-23T15:41:38;17.50;60.20
75621;DHT22;64574;48.506;-2.750;2023-05-23T15:44:04;17.50;60.10
75621;DHT22;64574;48.506;-2.750;2023-05-23T15:46:30;17.50;59.50
75621;DHT22;64574;48.506;-2.750;2023-05-23T15:48:56;17.20;59.40